KFYG

Washington Regional Airport

Washington, Missouri, USA
METAR KFYG 230955Z AUTO 00000KT 5SM BR BKN016 BKN025 07/07 A3017 RMK AO2
Observed Flight Rules
Feb-23 @ 09:55 UTC (30 minutes ago) Marginal Visual Flight Rules
Wind Visibility Clouds Conditions
Calm 5 miles
  • Broken at 1,600' AGL
  • Broken at 2,500' AGL
  • Mist
Temperatures Readings
Current 7°C / 45°F
Dewpoint 7°C / 45°F
Humidity 100%
Altimeter 30.17" Hg
Pressure 1022 hPa
Elevation 149
METAR KFYG 230955Z AUTO 00000KT 5SM BR BKN016 BKN025 07/07 A3017 RMK AO2
Observed Flight Rules
Feb-23 @ 09:55 UTC
(30 minutes ago)
MVFR
Wind Visibility
Calm 5 miles
Clouds
  • Broken at 1,600' AGL
  • Broken at 2,500' AGL
Conditions
  • Mist
Temperature Dewpoint
7°C / 45°F 7°C / 45°F
Humidity Altimeter Pressure
100% 30.17" Hg 1022 hPa